BAW460 EGLL-LEMD
Flight info
| Callsign | BAW460 |
|---|---|
| Flight time | 1h 51m |
| Altitude | 31000 |
| Route | GASGU N866 SAM M195 IBNID/N0451F330 M195 MARUK N621 LELNA DCT NOVAN DCT DELOG N864 NONTU |
| Aircraft | B772/H-SDE1E3FGHIJ3J5J6M1M2P2RWXYZ/LB1D1 |
Departure
| Time | 2026-04-30 20:59 |
|---|---|
| Airport | London Heathrow Airport (EGLL) |
Arrival
| Time | 2026-04-30 22:50 |
|---|---|
| Airport | Adolfo Suárez Madrid–Barajas Airport (LEMD) |
| Time | Latitude | Longitude | Altitude | Speed | Heading |
|---|---|---|---|---|---|
| 2026-04-30 20:31 | 51.47133 | -0.48023 | 91 ft | 0 kts | 270° |
| 2026-04-30 20:50 | 51.47133 | -0.48010 | 91 ft | 4 kts | 270° |
| 2026-04-30 20:50 | 51.47133 | -0.47967 | 91 ft | 4 kts | 270° |
| 2026-04-30 20:50 | 51.47134 | -0.47928 | 92 ft | 2 kts | 270° |
| 2026-04-30 20:50 | 51.47136 | -0.47892 | 93 ft | 4 kts | 236° |
| 2026-04-30 20:51 | 51.47155 | -0.47871 | 91 ft | 4 kts | 182° |
| 2026-04-30 20:51 | 51.47189 | -0.47871 | 90 ft | 0 kts | 180° |
| 2026-04-30 20:53 | 51.47186 | -0.47871 | 99 ft | 1 kts | 179° |
| 2026-04-30 20:53 | 51.47170 | -0.47870 | 92 ft | 4 kts | 179° |
| 2026-04-30 20:54 | 51.47061 | -0.47870 | 91 ft | 11 kts | 180° |
| 2026-04-30 20:54 | 51.46986 | -0.47869 | 91 ft | 11 kts | 179° |
| 2026-04-30 20:54 | 51.46911 | -0.47868 | 91 ft | 11 kts | 179° |
| 2026-04-30 20:55 | 51.46761 | -0.47867 | 91 ft | 11 kts | 180° |
| 2026-04-30 20:55 | 51.46690 | -0.47867 | 93 ft | 7 kts | 179° |
| 2026-04-30 20:55 | 51.46656 | -0.47918 | 92 ft | 7 kts | 255° |
| 2026-04-30 20:56 | 51.46653 | -0.48083 | 91 ft | 7 kts | 270° |
| 2026-04-30 20:56 | 51.46653 | -0.48191 | 91 ft | 12 kts | 270° |
| 2026-04-30 20:56 | 51.46652 | -0.48549 | 91 ft | 17 kts | 269° |
| 2026-04-30 20:57 | 51.46650 | -0.48702 | 92 ft | 8 kts | 264° |
| 2026-04-30 20:57 | 51.46608 | -0.48759 | 94 ft | 8 kts | 202° |
| 2026-04-30 20:57 | 51.46552 | -0.48783 | 94 ft | 8 kts | 186° |
| 2026-04-30 20:58 | 51.46480 | -0.48663 | 91 ft | 8 kts | 96° |
| 2026-04-30 20:58 | 51.46479 | -0.48559 | 91 ft | 17 kts | 90° |
| 2026-04-30 20:58 | 51.46480 | -0.48024 | 91 ft | 86 kts | 90° |
| 2026-04-30 20:58 | 51.46484 | -0.46688 | 131 ft | 150 kts | 90° |
| 2026-04-30 20:59 | 51.46524 | -0.43296 | 1821 ft | 157 kts | 89° |
| 2026-04-30 20:59 | 51.46412 | -0.41396 | 2033 ft | 185 kts | 112° |
| 2026-04-30 21:00 | 51.44713 | -0.37500 | 2645 ft | 233 kts | 124° |
| 2026-04-30 21:00 | 51.42578 | -0.33749 | 4424 ft | 235 kts | 150° |
| 2026-04-30 21:01 | 51.39259 | -0.33218 | 6016 ft | 255 kts | 189° |
| 2026-04-30 21:01 | 51.37610 | -0.34364 | 6752 ft | 264 kts | 210° |
| 2026-04-30 21:01 | 51.34767 | -0.38405 | 8141 ft | 277 kts | 218° |
| 2026-04-30 21:02 | 51.33342 | -0.40526 | 8858 ft | 282 kts | 218° |
| 2026-04-30 21:02 | 51.31920 | -0.42663 | 9540 ft | 286 kts | 220° |
| 2026-04-30 21:02 | 51.30685 | -0.45230 | 10180 ft | 297 kts | 236° |
| 2026-04-30 21:02 | 51.29803 | -0.48308 | 10634 ft | 315 kts | 246° |
| 2026-04-30 21:03 | 51.29130 | -0.51801 | 10814 ft | 342 kts | 251° |
| 2026-04-30 21:03 | 51.28486 | -0.55554 | 11368 ft | 356 kts | 251° |
| 2026-04-30 21:03 | 51.27816 | -0.59409 | 12185 ft | 363 kts | 250° |
| 2026-04-30 21:03 | 51.27082 | -0.63292 | 13175 ft | 367 kts | 250° |
| 2026-04-30 21:04 | 51.26322 | -0.67214 | 14221 ft | 372 kts | 249° |
| 2026-04-30 21:04 | 51.25555 | -0.71142 | 15156 ft | 376 kts | 249° |
| 2026-04-30 21:04 | 51.23983 | -0.79195 | 17104 ft | 383 kts | 248° |
| 2026-04-30 21:05 | 51.23189 | -0.83281 | 18062 ft | 388 kts | 248° |
| 2026-04-30 21:05 | 51.22382 | -0.87411 | 18948 ft | 393 kts | 248° |
| 2026-04-30 21:05 | 51.21559 | -0.91606 | 19719 ft | 399 kts | 248° |
| 2026-04-30 21:05 | 51.20588 | -0.95729 | 20317 ft | 397 kts | 236° |
| 2026-04-30 21:06 | 51.18867 | -0.99099 | 20962 ft | 388 kts | 217° |
| 2026-04-30 21:06 | 51.16838 | -1.01991 | 21583 ft | 397 kts | 217° |
| 2026-04-30 21:06 | 51.14805 | -1.05025 | 22390 ft | 403 kts | 218° |
| 2026-04-30 21:06 | 51.12767 | -1.08135 | 23247 ft | 407 kts | 218° |
| 2026-04-30 21:07 | 51.10714 | -1.11287 | 24029 ft | 412 kts | 218° |
| 2026-04-30 21:07 | 51.08641 | -1.14469 | 24708 ft | 416 kts | 218° |
| 2026-04-30 21:07 | 51.06572 | -1.17638 | 25416 ft | 420 kts | 218° |
| 2026-04-30 21:07 | 51.04457 | -1.20870 | 26120 ft | 423 kts | 218° |
| 2026-04-30 21:08 | 51.02324 | -1.24123 | 26787 ft | 426 kts | 218° |
| 2026-04-30 21:08 | 51.00178 | -1.27392 | 27408 ft | 430 kts | 218° |
| 2026-04-30 21:08 | 50.98000 | -1.30701 | 28034 ft | 434 kts | 218° |
| 2026-04-30 21:08 | 50.95781 | -1.33964 | 28620 ft | 436 kts | 215° |
| 2026-04-30 21:09 | 50.93372 | -1.36878 | 29150 ft | 435 kts | 208° |
| 2026-04-30 21:09 | 50.90820 | -1.39499 | 29693 ft | 438 kts | 207° |
| 2026-04-30 21:09 | 50.88250 | -1.42126 | 30263 ft | 441 kts | 208° |
| 2026-04-30 21:09 | 50.85660 | -1.44784 | 30669 ft | 445 kts | 208° |
| 2026-04-30 21:10 | 50.83056 | -1.47471 | 31060 ft | 449 kts | 208° |
| 2026-04-30 21:10 | 50.80431 | -1.50189 | 31452 ft | 452 kts | 208° |
| 2026-04-30 21:10 | 50.77830 | -1.52887 | 31835 ft | 454 kts | 208° |
| 2026-04-30 21:10 | 50.75178 | -1.55639 | 32220 ft | 457 kts | 208° |
| 2026-04-30 21:11 | 50.72510 | -1.58403 | 32568 ft | 459 kts | 208° |
| 2026-04-30 21:11 | 50.69833 | -1.61173 | 32910 ft | 462 kts | 208° |
| 2026-04-30 21:11 | 50.67133 | -1.63961 | 33218 ft | 464 kts | 208° |
| 2026-04-30 21:11 | 50.64423 | -1.66756 | 33525 ft | 466 kts | 209° |
| 2026-04-30 21:12 | 50.61699 | -1.69561 | 33885 ft | 468 kts | 209° |
| 2026-04-30 21:12 | 50.59008 | -1.72330 | 34270 ft | 467 kts | 209° |
| 2026-04-30 21:12 | 50.56288 | -1.75126 | 34660 ft | 466 kts | 209° |
| 2026-04-30 21:12 | 50.53579 | -1.77904 | 35067 ft | 464 kts | 210° |
| 2026-04-30 21:13 | 50.50874 | -1.80667 | 35444 ft | 463 kts | 210° |
| 2026-04-30 21:13 | 50.48171 | -1.83413 | 35812 ft | 462 kts | 209° |
| 2026-04-30 21:13 | 50.45467 | -1.86152 | 36187 ft | 462 kts | 210° |
| 2026-04-30 21:13 | 50.42766 | -1.88887 | 36653 ft | 459 kts | 210° |
| 2026-04-30 21:14 | 50.40083 | -1.91599 | 37051 ft | 458 kts | 210° |
| 2026-04-30 21:14 | 50.37396 | -1.94312 | 37246 ft | 460 kts | 210° |
| 2026-04-30 21:14 | 50.34744 | -1.96989 | 37729 ft | 457 kts | 210° |
| 2026-04-30 21:14 | 50.32080 | -1.99679 | 38109 ft | 456 kts | 211° |
| 2026-04-30 21:15 | 50.29409 | -2.02369 | 38414 ft | 456 kts | 210° |
| 2026-04-30 21:15 | 50.26660 | -2.04804 | 38806 ft | 451 kts | 203° |
| 2026-04-30 21:15 | 50.23725 | -2.06550 | 39008 ft | 451 kts | 195° |
| 2026-04-30 21:15 | 50.20668 | -2.07746 | 39044 ft | 453 kts | 189° |
| 2026-04-30 21:16 | 50.14424 | -2.08650 | 39124 ft | 455 kts | 183° |
| 2026-04-30 21:16 | 50.08091 | -2.09390 | 39118 ft | 455 kts | 183° |
| 2026-04-30 21:17 | 50.01818 | -2.10218 | 39120 ft | 451 kts | 184° |
| 2026-04-30 21:17 | 49.95599 | -2.11804 | 39123 ft | 454 kts | 194° |
| 2026-04-30 21:18 | 49.89571 | -2.14662 | 39110 ft | 457 kts | 196° |
| 2026-04-30 21:18 | 49.83470 | -2.17560 | 39105 ft | 459 kts | 196° |
| 2026-04-30 21:19 | 49.77344 | -2.20430 | 39110 ft | 459 kts | 195° |
| 2026-04-30 21:19 | 49.71232 | -2.23270 | 39102 ft | 458 kts | 196° |
| 2026-04-30 21:20 | 49.65123 | -2.26095 | 39119 ft | 458 kts | 196° |
| 2026-04-30 21:20 | 49.60032 | -2.28445 | 39109 ft | 458 kts | 196° |
| 2026-04-30 21:21 | 49.53955 | -2.31244 | 39101 ft | 458 kts | 196° |
| 2026-04-30 21:22 | 49.44772 | -2.35460 | 39080 ft | 458 kts | 196° |
| 2026-04-30 21:23 | 49.32573 | -2.41036 | 39079 ft | 459 kts | 196° |
| 2026-04-30 21:23 | 49.23381 | -2.45219 | 39082 ft | 459 kts | 196° |
| 2026-04-30 21:24 | 49.17255 | -2.47997 | 39081 ft | 459 kts | 196° |
| 2026-04-30 21:24 | 49.11169 | -2.50750 | 39077 ft | 459 kts | 196° |
| 2026-04-30 21:25 | 49.01966 | -2.54900 | 39072 ft | 459 kts | 196° |
| 2026-04-30 21:26 | 48.92797 | -2.59018 | 39069 ft | 459 kts | 196° |
| 2026-04-30 21:27 | 48.83583 | -2.63141 | 39072 ft | 459 kts | 196° |
| 2026-04-30 21:27 | 48.77447 | -2.65878 | 39059 ft | 459 kts | 196° |
| 2026-04-30 21:28 | 48.68281 | -2.69953 | 39051 ft | 459 kts | 196° |
| 2026-04-30 21:29 | 48.59095 | -2.74022 | 39047 ft | 458 kts | 196° |
| 2026-04-30 21:30 | 48.43747 | -2.80786 | 39048 ft | 460 kts | 195° |
| 2026-04-30 21:31 | 48.28461 | -2.87480 | 39048 ft | 457 kts | 195° |
| 2026-04-30 21:32 | 48.19301 | -2.91472 | 39047 ft | 457 kts | 195° |
| 2026-04-30 21:32 | 48.13191 | -2.94126 | 39040 ft | 458 kts | 195° |
| 2026-04-30 21:33 | 48.04000 | -2.98106 | 39046 ft | 459 kts | 195° |
| 2026-04-30 21:34 | 47.97917 | -3.00733 | 39040 ft | 456 kts | 195° |
| 2026-04-30 21:34 | 47.88774 | -3.04667 | 39050 ft | 456 kts | 195° |
| 2026-04-30 21:35 | 47.82662 | -3.07289 | 39055 ft | 458 kts | 195° |
| 2026-04-30 21:35 | 47.76517 | -3.09919 | 39041 ft | 459 kts | 195° |
| 2026-04-30 21:36 | 47.70401 | -3.12531 | 39051 ft | 460 kts | 195° |
| 2026-04-30 21:37 | 47.58036 | -3.17791 | 39048 ft | 462 kts | 195° |
| 2026-04-30 21:37 | 47.51845 | -3.20415 | 39049 ft | 463 kts | 195° |
| 2026-04-30 21:38 | 47.45685 | -3.23019 | 39055 ft | 463 kts | 195° |
| 2026-04-30 21:38 | 47.39493 | -3.25631 | 39058 ft | 463 kts | 195° |
| 2026-04-30 21:39 | 47.33295 | -3.28239 | 39055 ft | 462 kts | 195° |
| 2026-04-30 21:39 | 47.27100 | -3.30839 | 39056 ft | 462 kts | 195° |
| 2026-04-30 21:40 | 47.20908 | -3.33431 | 39056 ft | 462 kts | 195° |
| 2026-04-30 21:40 | 47.14759 | -3.35999 | 39056 ft | 462 kts | 195° |
| 2026-04-30 21:41 | 47.08573 | -3.38577 | 39059 ft | 461 kts | 195° |
| 2026-04-30 21:41 | 47.02390 | -3.41147 | 39060 ft | 462 kts | 195° |
| 2026-04-30 21:42 | 46.96210 | -3.43710 | 39063 ft | 462 kts | 195° |
| 2026-04-30 21:42 | 46.90020 | -3.46270 | 39056 ft | 462 kts | 195° |
| 2026-04-30 21:43 | 46.83862 | -3.48812 | 39064 ft | 462 kts | 195° |
| 2026-04-30 21:43 | 46.77666 | -3.51363 | 39064 ft | 463 kts | 195° |
| 2026-04-30 21:44 | 46.71452 | -3.53915 | 39062 ft | 463 kts | 195° |
| 2026-04-30 21:44 | 46.65285 | -3.56442 | 39067 ft | 463 kts | 195° |
| 2026-04-30 21:45 | 46.59077 | -3.58980 | 39074 ft | 463 kts | 195° |
| 2026-04-30 21:45 | 46.52868 | -3.61512 | 39072 ft | 463 kts | 195° |
| 2026-04-30 21:46 | 46.46665 | -3.64036 | 39075 ft | 462 kts | 196° |
| 2026-04-30 21:46 | 46.40467 | -3.66552 | 39073 ft | 462 kts | 196° |
| 2026-04-30 21:47 | 46.34304 | -3.69045 | 39077 ft | 462 kts | 195° |
| 2026-04-30 21:47 | 46.27973 | -3.70653 | 39070 ft | 463 kts | 186° |
| 2026-04-30 21:48 | 46.21559 | -3.71550 | 39076 ft | 463 kts | 186° |
| 2026-04-30 21:48 | 46.15126 | -3.72465 | 39079 ft | 464 kts | 186° |
| 2026-04-30 21:49 | 46.08694 | -3.73410 | 39079 ft | 465 kts | 187° |
| 2026-04-30 21:49 | 46.02249 | -3.74369 | 39080 ft | 465 kts | 187° |
| 2026-04-30 21:50 | 45.95803 | -3.75328 | 39083 ft | 465 kts | 187° |
| 2026-04-30 21:50 | 45.89404 | -3.76277 | 39078 ft | 466 kts | 187° |
| 2026-04-30 21:51 | 45.82948 | -3.77231 | 39081 ft | 466 kts | 187° |
| 2026-04-30 21:51 | 45.76490 | -3.78183 | 39081 ft | 466 kts | 187° |
| 2026-04-30 21:52 | 45.70020 | -3.79135 | 39080 ft | 467 kts | 187° |
| 2026-04-30 21:52 | 45.63597 | -3.80077 | 39084 ft | 467 kts | 187° |
| 2026-04-30 21:53 | 45.57128 | -3.81024 | 39087 ft | 467 kts | 187° |
| 2026-04-30 21:53 | 45.50654 | -3.81970 | 39087 ft | 468 kts | 187° |
| 2026-04-30 21:54 | 45.44172 | -3.82914 | 39090 ft | 468 kts | 187° |
| 2026-04-30 21:54 | 45.37731 | -3.83851 | 39089 ft | 468 kts | 187° |
| 2026-04-30 21:55 | 45.31253 | -3.84791 | 39084 ft | 468 kts | 188° |
| 2026-04-30 21:55 | 45.24762 | -3.85730 | 39094 ft | 468 kts | 188° |
| 2026-04-30 21:56 | 45.18284 | -3.86665 | 39090 ft | 468 kts | 188° |
| 2026-04-30 21:56 | 45.11803 | -3.87599 | 39083 ft | 467 kts | 188° |
| 2026-04-30 21:57 | 45.05371 | -3.88523 | 39091 ft | 467 kts | 188° |
| 2026-04-30 21:57 | 44.98906 | -3.89451 | 39095 ft | 467 kts | 188° |
| 2026-04-30 21:58 | 44.92435 | -3.90377 | 39086 ft | 467 kts | 188° |
| 2026-04-30 21:58 | 44.85964 | -3.91300 | 39090 ft | 466 kts | 188° |
| 2026-04-30 21:59 | 44.79499 | -3.92221 | 39099 ft | 466 kts | 188° |
| 2026-04-30 22:00 | 44.69848 | -3.93592 | 39098 ft | 467 kts | 188° |
| 2026-04-30 22:00 | 44.60136 | -3.94967 | 39100 ft | 467 kts | 188° |
| 2026-04-30 22:01 | 44.53676 | -3.95879 | 39087 ft | 467 kts | 188° |
| 2026-04-30 22:01 | 44.47250 | -3.96785 | 39094 ft | 467 kts | 188° |
| 2026-04-30 22:02 | 44.40777 | -3.97695 | 39095 ft | 466 kts | 188° |
| 2026-04-30 22:02 | 44.34311 | -3.98581 | 39103 ft | 467 kts | 187° |
| 2026-04-30 22:03 | 44.27787 | -3.98416 | 39105 ft | 470 kts | 179° |
| 2026-04-30 22:03 | 44.21250 | -3.97696 | 39105 ft | 471 kts | 179° |
| 2026-04-30 22:04 | 44.14711 | -3.97010 | 39093 ft | 471 kts | 179° |
| 2026-04-30 22:05 | 44.04927 | -3.96046 | 39105 ft | 471 kts | 179° |
| 2026-04-30 22:05 | 43.98383 | -3.95410 | 39107 ft | 471 kts | 179° |
| 2026-04-30 22:06 | 43.91877 | -3.94775 | 39099 ft | 471 kts | 180° |
| 2026-04-30 22:06 | 43.82083 | -3.93822 | 39103 ft | 471 kts | 180° |
| 2026-04-30 22:07 | 43.75539 | -3.93187 | 39097 ft | 470 kts | 180° |
| 2026-04-30 22:07 | 43.69014 | -3.92547 | 39103 ft | 469 kts | 180° |
| 2026-04-30 22:08 | 43.63599 | -3.92016 | 39105 ft | 469 kts | 180° |
| 2026-04-30 22:08 | 43.57082 | -3.91378 | 39084 ft | 469 kts | 180° |
| 2026-04-30 22:09 | 43.49521 | -3.90640 | 39072 ft | 468 kts | 180° |
| 2026-04-30 22:09 | 43.43043 | -3.90399 | 39076 ft | 463 kts | 188° |
| 2026-04-30 22:10 | 43.37698 | -3.91203 | 39081 ft | 461 kts | 191° |
| 2026-04-30 22:10 | 43.31368 | -3.92213 | 39084 ft | 461 kts | 191° |
| 2026-04-30 22:11 | 43.21789 | -3.93662 | 39089 ft | 462 kts | 191° |
| 2026-04-30 22:12 | 43.15394 | -3.94608 | 39056 ft | 461 kts | 191° |
| 2026-04-30 22:12 | 43.09011 | -3.95549 | 39091 ft | 461 kts | 191° |
| 2026-04-30 22:13 | 43.02681 | -3.96485 | 39082 ft | 460 kts | 191° |
| 2026-04-30 22:13 | 42.96315 | -3.97424 | 39088 ft | 460 kts | 191° |
| 2026-04-30 22:14 | 42.89959 | -3.98357 | 39083 ft | 459 kts | 191° |
| 2026-04-30 22:14 | 42.83600 | -3.99285 | 39086 ft | 459 kts | 191° |
| 2026-04-30 22:15 | 42.77253 | -4.00211 | 39083 ft | 459 kts | 191° |
| 2026-04-30 22:15 | 42.70896 | -4.01138 | 39094 ft | 459 kts | 191° |
| 2026-04-30 22:16 | 42.64589 | -4.02056 | 39091 ft | 459 kts | 190° |
| 2026-04-30 22:17 | 42.51863 | -4.03898 | 39086 ft | 459 kts | 190° |
| 2026-04-30 22:17 | 42.42397 | -4.05255 | 39103 ft | 457 kts | 190° |
| 2026-04-30 22:18 | 42.32875 | -4.06619 | 39103 ft | 456 kts | 190° |
| 2026-04-30 22:19 | 42.23447 | -4.07964 | 39101 ft | 456 kts | 190° |
| 2026-04-30 22:20 | 42.13987 | -4.09311 | 39117 ft | 455 kts | 190° |
| 2026-04-30 22:20 | 42.04572 | -4.10648 | 39107 ft | 454 kts | 190° |
| 2026-04-30 22:21 | 41.98279 | -4.11467 | 39106 ft | 454 kts | 189° |
| 2026-04-30 22:21 | 41.91976 | -4.12163 | 39121 ft | 454 kts | 189° |
| 2026-04-30 22:22 | 41.85675 | -4.12859 | 39105 ft | 454 kts | 189° |
| 2026-04-30 22:22 | 41.79380 | -4.13570 | 39113 ft | 453 kts | 189° |
| 2026-04-30 22:23 | 41.73050 | -4.14293 | 38308 ft | 461 kts | 189° |
| 2026-04-30 22:23 | 41.69862 | -4.14655 | 37778 ft | 456 kts | 189° |
| 2026-04-30 22:23 | 41.66722 | -4.15008 | 37316 ft | 450 kts | 189° |
| 2026-04-30 22:24 | 41.63618 | -4.15358 | 36852 ft | 445 kts | 189° |
| 2026-04-30 22:24 | 41.60589 | -4.15700 | 36386 ft | 441 kts | 189° |
| 2026-04-30 22:24 | 41.57549 | -4.16044 | 35933 ft | 437 kts | 189° |
| 2026-04-30 22:24 | 41.54531 | -4.16387 | 35461 ft | 433 kts | 189° |
| 2026-04-30 22:25 | 41.51533 | -4.16725 | 34993 ft | 430 kts | 189° |
| 2026-04-30 22:25 | 41.48555 | -4.17061 | 34509 ft | 427 kts | 189° |
| 2026-04-30 22:25 | 41.45602 | -4.17393 | 34039 ft | 424 kts | 189° |
| 2026-04-30 22:25 | 41.42670 | -4.17723 | 33506 ft | 422 kts | 188° |
| 2026-04-30 22:26 | 41.36850 | -4.18378 | 32528 ft | 416 kts | 188° |
| 2026-04-30 22:26 | 41.34011 | -4.18697 | 32061 ft | 413 kts | 188° |
| 2026-04-30 22:26 | 41.31158 | -4.19017 | 31594 ft | 410 kts | 188° |
| 2026-04-30 22:27 | 41.28323 | -4.19336 | 31133 ft | 407 kts | 188° |
| 2026-04-30 22:27 | 41.25505 | -4.19642 | 30650 ft | 405 kts | 187° |
| 2026-04-30 22:27 | 41.19891 | -4.20007 | 29643 ft | 401 kts | 186° |
| 2026-04-30 22:28 | 41.14355 | -4.20296 | 28614 ft | 393 kts | 186° |
| 2026-04-30 22:28 | 41.11631 | -4.20449 | 28113 ft | 390 kts | 186° |
| 2026-04-30 22:29 | 41.03592 | -4.20930 | 26668 ft | 381 kts | 186° |
| 2026-04-30 22:29 | 41.00987 | -4.21088 | 26218 ft | 378 kts | 186° |
| 2026-04-30 22:30 | 40.90572 | -4.21721 | 24407 ft | 371 kts | 185° |
| 2026-04-30 22:31 | 40.82863 | -4.22187 | 22942 ft | 367 kts | 185° |
| 2026-04-30 22:32 | 40.75272 | -4.22643 | 21597 ft | 360 kts | 185° |
| 2026-04-30 22:32 | 40.70331 | -4.22939 | 20747 ft | 356 kts | 185° |
| 2026-04-30 22:33 | 40.62983 | -4.23381 | 19485 ft | 350 kts | 185° |
| 2026-04-30 22:33 | 40.58136 | -4.23672 | 18632 ft | 347 kts | 184° |
| 2026-04-30 22:34 | 40.50995 | -4.23393 | 17233 ft | 338 kts | 162° |
| 2026-04-30 22:35 | 40.46688 | -4.21057 | 16438 ft | 333 kts | 160° |
| 2026-04-30 22:36 | 40.38136 | -4.16628 | 14806 ft | 327 kts | 161° |
| 2026-04-30 22:36 | 40.36048 | -4.15489 | 14392 ft | 322 kts | 153° |
| 2026-04-30 22:37 | 40.32589 | -4.08169 | 13356 ft | 330 kts | 109° |
| 2026-04-30 22:37 | 40.31890 | -4.05286 | 13060 ft | 331 kts | 109° |
| 2026-04-30 22:37 | 40.30503 | -3.99581 | 12511 ft | 326 kts | 110° |
| 2026-04-30 22:38 | 40.29111 | -3.93974 | 11975 ft | 321 kts | 110° |
| 2026-04-30 22:38 | 40.27726 | -3.88457 | 11464 ft | 317 kts | 110° |
| 2026-04-30 22:39 | 40.27044 | -3.85752 | 11202 ft | 316 kts | 110° |
| 2026-04-30 22:39 | 40.24980 | -3.77588 | 10453 ft | 311 kts | 110° |
| 2026-04-30 22:40 | 40.22979 | -3.69708 | 9626 ft | 296 kts | 110° |
| 2026-04-30 22:41 | 40.21078 | -3.62246 | 8914 ft | 281 kts | 110° |
| 2026-04-30 22:41 | 40.19850 | -3.57437 | 8455 ft | 276 kts | 110° |
| 2026-04-30 22:42 | 40.17532 | -3.47991 | 7542 ft | 265 kts | 96° |
| 2026-04-30 22:43 | 40.18858 | -3.43747 | 7132 ft | 260 kts | 44° |
| 2026-04-30 22:43 | 40.21636 | -3.40712 | 6708 ft | 260 kts | 32° |
| 2026-04-30 22:44 | 40.24794 | -3.38488 | 6295 ft | 251 kts | 23° |
| 2026-04-30 22:45 | 40.31204 | -3.37913 | 5500 ft | 214 kts | 345° |
| 2026-04-30 22:45 | 40.33634 | -3.39748 | 5165 ft | 195 kts | 323° |
| 2026-04-30 22:46 | 40.35742 | -3.41825 | 4803 ft | 188 kts | 321° |
| 2026-04-30 22:47 | 40.39642 | -3.45785 | 3859 ft | 155 kts | 320° |
| 2026-04-30 22:47 | 40.41230 | -3.47396 | 3490 ft | 142 kts | 321° |
| 2026-04-30 22:48 | 40.42779 | -3.48972 | 3110 ft | 143 kts | 322° |
| 2026-04-30 22:49 | 40.45127 | -3.51364 | 2514 ft | 140 kts | 321° |
| 2026-04-30 22:49 | 40.47528 | -3.53799 | 1945 ft | 148 kts | 321° |
| 2026-04-30 22:50 | 40.49218 | -3.55604 | 1964 ft | 23 kts | 292° |
| 2026-04-30 22:51 | 40.49300 | -3.55934 | 1964 ft | 16 kts | 271° |
| 2026-04-30 22:51 | 40.49289 | -3.56211 | 1965 ft | 11 kts | 241° |
| 2026-04-30 22:52 | 40.49219 | -3.56245 | 1966 ft | 11 kts | 182° |
| 2026-04-30 22:52 | 40.49065 | -3.56245 | 1966 ft | 11 kts | 179° |
| 2026-04-30 22:53 | 40.48913 | -3.56243 | 1966 ft | 10 kts | 179° |
| 2026-04-30 22:53 | 40.48862 | -3.56378 | 1970 ft | 10 kts | 269° |
| 2026-04-30 22:53 | 40.48863 | -3.56465 | 1972 ft | 10 kts | 270° |
| 2026-04-30 22:54 | 40.48948 | -3.56582 | 1981 ft | 8 kts | 320° |
| 2026-04-30 22:55 | 40.48995 | -3.56634 | 1981 ft | 0 kts | 319° |